createdAt,value
2022-08-04T00:04:11.035Z,7.72
2022-08-04T00:09:25.049Z,7.60
2022-08-04T00:14:33.963Z,7.20
2022-08-04T00:19:42.532Z,7.32
2022-08-04T00:24:47.316Z,10.15
2022-08-04T00:29:53.023Z,8.10
2022-08-04T00:34:58.155Z,9.05
2022-08-04T00:40:08.110Z,8.30
2022-08-04T00:46:10.487Z,10.48
2022-08-04T00:51:08.207Z,8.93
2022-08-04T00:56:39.370Z,9.55
2022-08-04T01:01:55.207Z,9.68
2022-08-04T01:07:15.064Z,12.95
2022-08-04T01:12:36.205Z,9.90
2022-08-04T01:17:50.396Z,9.38
2022-08-04T01:23:24.551Z,11.10
2022-08-04T01:28:43.041Z,10.65
2022-08-04T01:34:03.493Z,10.27
2022-08-04T01:39:27.792Z,12.40
2022-08-04T01:44:31.615Z,12.55
2022-08-04T01:49:40.008Z,9.90
2022-08-04T01:54:44.132Z,10.93
2022-08-04T01:59:50.084Z,10.50
2022-08-04T02:04:54.417Z,11.23
2022-08-04T02:10:05.038Z,11.07
2022-08-04T02:15:17.184Z,11.60
2022-08-04T02:20:25.383Z,9.77
2022-08-04T02:25:32.513Z,11.02
2022-08-04T02:30:44.166Z,12.63
2022-08-04T02:35:57.325Z,16.98
2022-08-04T02:41:02.212Z,11.00
2022-08-04T02:46:06.144Z,10.35
2022-08-04T02:51:26.025Z,10.90
2022-08-04T02:56:30.600Z,11.95
2022-08-04T03:01:34.463Z,11.38
2022-08-04T03:07:02.302Z,11.20
2022-08-04T03:12:35.042Z,10.10
2022-08-04T03:18:08.422Z,13.48
2022-08-04T03:23:36.514Z,10.43
2022-08-04T03:29:08.465Z,9.75
2022-08-04T03:34:36.967Z,10.10
2022-08-04T03:40:11.341Z,10.65
2022-08-04T03:45:49.741Z,11.85
2022-08-04T03:51:35.428Z,10.98
2022-08-04T03:57:05.509Z,10.40
2022-08-04T04:02:29.056Z,12.35
2022-08-04T04:08:12.582Z,8.90
2022-08-04T04:13:37.261Z,11.05
2022-08-04T04:19:05.084Z,9.93
2022-08-04T04:24:53.132Z,9.77
2022-08-04T04:30:07.752Z,9.25
2022-08-04T04:35:22.997Z,10.40
2022-08-04T04:40:34.754Z,11.32
2022-08-04T04:45:47.184Z,9.98
2022-08-04T04:51:05.847Z,10.52
2022-08-04T04:56:14.763Z,12.68
2022-08-04T05:01:46.229Z,9.43
2022-08-04T05:07:04.603Z,10.70
2022-08-04T05:14:31.306Z,9.98
2022-08-04T05:17:54.076Z,11.77
2022-08-04T05:22:59.872Z,10.82
2022-08-04T05:28:06.168Z,10.30
2022-08-04T05:33:15.251Z,16.67
2022-08-04T05:38:23.358Z,11.13
2022-08-04T05:43:27.319Z,8.48
2022-08-04T05:48:33.317Z,9.10
2022-08-04T05:53:36.737Z,9.07
2022-08-04T05:58:41.460Z,9.98
2022-08-04T06:03:48.945Z,25.15
2022-08-04T06:08:52.318Z,13.02
2022-08-04T06:13:58.616Z,18.52
2022-08-04T06:20:01.809Z,7.90
2022-08-04T06:24:33.003Z,11.60
2022-08-04T06:29:40.775Z,7.32
2022-08-04T06:34:57.763Z,11.75
2022-08-04T06:40:02.686Z,8.20
2022-08-04T06:45:20.710Z,6.80
2022-08-04T06:51:29.706Z,6.70
2022-08-04T06:55:50.317Z,10.20
2022-08-04T07:00:55.781Z,6.25
2022-08-04T07:06:05.737Z,8.77
2022-08-04T07:11:10.093Z,6.45
2022-08-04T07:16:14.957Z,9.20
2022-08-04T07:21:22.554Z,6.80
2022-08-04T07:26:28.951Z,6.90
2022-08-04T07:31:34.212Z,9.82
2022-08-04T07:36:50.008Z,9.02
2022-08-04T07:41:55.223Z,6.80
2022-08-04T07:46:59.281Z,10.13
2022-08-04T07:52:04.423Z,7.78
2022-08-04T07:57:07.729Z,8.57
2022-08-04T08:02:23.747Z,8.32
2022-08-04T08:07:28.406Z,7.05
2022-08-04T08:12:38.549Z,8.80
2022-08-04T08:17:59.646Z,7.10
2022-08-04T08:23:05.151Z,12.02
2022-08-04T08:28:08.414Z,7.63
2022-08-04T08:33:15.118Z,5.38
2022-08-04T08:38:39.597Z,6.15
2022-08-04T08:44:07.220Z,6.80
2022-08-04T08:50:00.554Z,7.35
2022-08-04T08:55:26.571Z,6.35
2022-08-04T09:00:47.958Z,14.57
2022-08-04T09:06:18.855Z,5.57
2022-08-04T09:11:28.322Z,5.00
2022-08-04T09:16:36.592Z,6.10
2022-08-04T09:21:47.972Z,7.03
2022-08-04T09:26:59.903Z,6.47
2022-08-04T09:32:12.073Z,6.60
2022-08-04T09:37:24.845Z,5.07
2022-08-04T09:42:40.391Z,6.32
2022-08-04T09:47:52.037Z,8.18
2022-08-04T09:53:02.886Z,4.72
2022-08-04T09:58:15.912Z,5.63
2022-08-04T10:03:23.096Z,3.47
2022-08-04T10:08:44.535Z,6.38
2022-08-04T10:13:57.624Z,6.13
2022-08-04T10:19:15.163Z,6.32
2022-08-04T10:24:33.042Z,5.93
2022-08-04T10:29:43.586Z,3.90
2022-08-04T10:35:03.162Z,4.32
2022-08-04T10:40:30.729Z,9.50
2022-08-04T10:45:45.094Z,6.55
2022-08-04T10:50:59.924Z,7.43
2022-08-04T10:56:09.716Z,6.18
2022-08-04T11:01:59.601Z,7.55
2022-08-04T11:06:46.475Z,5.32
2022-08-04T11:12:01.299Z,4.95
2022-08-04T11:17:09.776Z,5.35
2022-08-04T11:22:22.005Z,5.65
2022-08-04T11:27:30.086Z,10.68
2022-08-04T11:32:43.324Z,7.85
2022-08-04T11:37:51.865Z,4.93
2022-08-04T11:42:59.775Z,4.20
2022-08-04T11:48:11.221Z,9.30
2022-08-04T11:53:19.579Z,10.32
2022-08-04T11:58:23.043Z,7.90
2022-08-04T12:03:37.756Z,8.50
2022-08-04T12:08:58.158Z,6.05
2022-08-04T12:14:10.040Z,16.38
2022-08-04T12:19:23.999Z,24.73
2022-08-04T12:24:34.354Z,16.50
2022-08-04T12:29:40.666Z,9.55
2022-08-04T12:35:00.744Z,10.43
2022-08-04T12:40:30.755Z,14.48
2022-08-04T12:45:34.995Z,22.77
2022-08-04T12:50:40.209Z,19.77
2022-08-04T12:56:01.686Z,9.65
2022-08-04T13:02:08.098Z,11.13
2022-08-04T13:06:35.721Z,5.75
2022-08-04T13:11:41.782Z,19.45
2022-08-04T13:16:47.467Z,13.05
2022-08-04T13:22:02.709Z,12.27
2022-08-04T13:27:16.326Z,10.68
2022-08-04T13:32:22.518Z,14.45
2022-08-04T13:37:33.471Z,14.88
2022-08-04T13:42:38.789Z,10.02
2022-08-04T13:47:43.393Z,4.53
2022-08-04T13:52:51.487Z,4.97
2022-08-04T13:57:58.946Z,3.72
2022-08-04T14:03:21.753Z,4.80
2022-08-04T14:08:31.668Z,5.18
2022-08-04T14:13:41.050Z,3.33
2022-08-04T14:18:45.941Z,3.50
2022-08-04T14:23:52.365Z,5.35
2022-08-04T14:29:08.378Z,3.88
2022-08-04T14:34:26.869Z,7.15
2022-08-04T14:39:41.011Z,5.80
2022-08-04T14:44:55.418Z,11.15
2022-08-04T14:49:58.653Z,5.40
2022-08-04T14:55:18.182Z,4.43
2022-08-04T15:00:29.666Z,4.20
2022-08-04T15:05:54.797Z,3.73
2022-08-04T15:10:59.009Z,5.75
2022-08-04T15:16:06.656Z,7.22
2022-08-04T15:21:12.330Z,4.97
2022-08-04T15:26:22.693Z,6.78
2022-08-04T15:32:06.918Z,4.63
2022-08-04T15:36:56.773Z,5.25
2022-08-04T15:42:20.488Z,5.80
2022-08-04T15:47:25.158Z,4.53
2022-08-04T15:52:32.074Z,3.70
2022-08-04T15:58:00.148Z,6.30
2022-08-04T16:03:03.503Z,3.83
2022-08-04T16:08:17.015Z,3.22
2022-08-04T16:13:23.040Z,3.85
2022-08-04T16:18:40.405Z,2.97
2022-08-04T16:24:09.824Z,3.08
2022-08-04T16:29:29.106Z,3.47
2022-08-04T16:34:48.501Z,3.83
2022-08-04T16:40:35.875Z,7.13
2022-08-04T16:45:46.470Z,3.30
2022-08-04T16:50:57.829Z,3.42
2022-08-04T16:56:08.926Z,3.20
2022-08-04T17:01:32.231Z,4.97
2022-08-04T17:06:38.673Z,4.22
2022-08-04T17:11:42.695Z,3.67
2022-08-04T17:16:47.126Z,4.80
2022-08-04T17:21:50.610Z,3.38
2022-08-04T17:26:54.965Z,5.95
2022-08-04T17:31:59.717Z,4.82
2022-08-04T17:37:31.595Z,4.60
2022-08-04T17:42:29.800Z,4.68
2022-08-04T17:47:38.131Z,4.63
2022-08-04T17:52:45.290Z,5.18
2022-08-04T17:57:52.195Z,3.97
2022-08-04T18:02:57.180Z,6.88
2022-08-04T18:08:34.623Z,8.40
2022-08-04T18:13:31.371Z,5.32
2022-08-04T18:19:07.838Z,7.38
2022-08-04T18:24:11.555Z,6.43
2022-08-04T18:29:15.610Z,6.88
2022-08-04T18:34:40.904Z,5.80
2022-08-04T18:40:17.437Z,5.35
2022-08-04T18:45:21.364Z,5.75
2022-08-04T18:50:40.054Z,5.72
2022-08-04T18:55:57.530Z,6.13
2022-08-04T19:01:01.432Z,7.45
2022-08-04T19:06:07.586Z,6.38
2022-08-04T19:11:37.154Z,10.65
2022-08-04T19:16:35.047Z,8.02
2022-08-04T19:21:59.322Z,8.55
2022-08-04T19:32:27.576Z,10.48
2022-08-04T19:37:57.688Z,8.35
2022-08-04T19:43:06.202Z,9.13
2022-08-04T19:48:21.349Z,6.10
2022-08-04T19:53:37.738Z,7.78
2022-08-04T19:58:41.990Z,8.68
2022-08-04T20:04:09.131Z,7.05
2022-08-04T20:09:24.505Z,7.25
2022-08-04T20:14:32.127Z,6.43
2022-08-04T20:19:36.159Z,6.75
2022-08-04T20:24:47.960Z,6.03
2022-08-04T20:29:57.865Z,6.72
2022-08-04T20:35:01.001Z,9.30
2022-08-04T20:40:06.677Z,11.70
2022-08-04T20:45:10.912Z,11.00
2022-08-04T20:50:29.591Z,12.73
2022-08-04T20:55:47.223Z,14.82
2022-08-04T21:00:58.205Z,14.25
2022-08-04T21:06:01.660Z,10.20
2022-08-04T21:11:06.998Z,10.15
2022-08-04T21:16:12.110Z,11.23
2022-08-04T21:21:35.809Z,13.20
2022-08-04T21:26:40.337Z,13.83
2022-08-04T21:31:50.244Z,11.73
2022-08-04T21:36:54.272Z,12.43
2022-08-04T21:47:45.867Z,11.23
2022-08-04T21:52:46.087Z,12.15
2022-08-04T21:57:51.522Z,13.18
2022-08-04T22:02:54.632Z,12.25
2022-08-04T22:07:57.791Z,12.35
2022-08-04T22:13:06.867Z,12.98
2022-08-04T22:18:10.676Z,12.25
2022-08-04T22:28:24.510Z,11.00
2022-08-04T22:33:55.235Z,12.27
2022-08-04T22:39:04.445Z,11.45
2022-08-04T22:44:15.506Z,15.10
2022-08-04T22:49:25.225Z,14.85
2022-08-04T22:54:35.057Z,10.05
2022-08-04T22:59:43.160Z,12.55
2022-08-04T23:04:48.986Z,10.93
2022-08-04T23:09:54.296Z,11.73
2022-08-04T23:14:59.331Z,12.30
2022-08-04T23:25:06.637Z,13.00
2022-08-04T23:30:29.937Z,12.57
2022-08-04T23:35:33.510Z,12.33
2022-08-04T23:40:50.616Z,16.40
2022-08-04T23:46:06.844Z,13.55
2022-08-04T23:51:14.422Z,11.48
2022-08-04T23:56:19.767Z,12.52
